Hovedside
METAR-TAF:

METAR-TAF

Lufthavner :

Visby lufthavn

Visby, Gotland, Sverige

breddegrad: 57-40N, lengdegrad: 018-21E, høyde over havet: 51 m

Gjeldene værobservasjon

Denne rapporten ble laget for 35 minutter siden, klokken 21:50 UTC
Vind 8 kt fra Sør
Temperatur 3°C
Luftfuktighet 93%
Trykk 1014 hPa
Sikt 10 km eller mer

METAR: ESSV 082150Z AUTO 18008KT 9999 NCD 03/02 Q1014

Tid: 00:25 (22:25 UTC)

Varsel

Denne rapporten ble laget for 7 timer og 55 minutter siden, klokken 14:30 UTC
Varsel gyldig fra 08. klokken 15 UTC til 08. klokken 17 UTC
Vind 12 kt fra Sørvest
Sikt 10 km eller mer
ingen skyer under 1500 m og ingen bygeskyer

TAF: ESSV 081430Z 0815/0817 22012KT CAVOK

Værobservasjoner og værvarsel for over 4000 flyplasser (METAR- og TAF-rapporter).

Tilgjengelige stasjoner er representert av de røde og gule prikkene på kartet.

Hold musepekeren over prikken for å se navnet på stasjonen.

Klikk så for å se værobservasjoner og -varsler.

For å forandre kartet kan du klikke på den grønne knappen med svart kryss for å zoome inn, på den grønne knappen med strek for å zoome ut, eller på de grønne pilene for å se tilstøtende kart.


METAR-TAF: